sensor_id;sensor_type;location;lat;lon;timestamp;pressure;altitude;pressure_sealevel;temperature;humidity
59654;BME280;66556;52.008;5.432;2023-02-28T00:01:10;103186.99999999999;;;8.3;53.95
59654;BME280;66556;52.008;5.432;2023-02-28T00:04:24;103186.99999999999;;;8.19;54.31
59654;BME280;66556;52.008;5.432;2023-02-28T00:06:01;103186.99999999999;;;8.13;54.23
59654;BME280;66556;52.008;5.432;2023-02-28T00:07:38;103182.0;;;8.4;53.96
59654;BME280;66556;52.008;5.432;2023-02-28T00:09:14;103180.0;;;8.27;53.99
59654;BME280;66556;52.008;5.432;2023-02-28T00:12:27;103177.0;;;8.34;54.16
59654;BME280;66556;52.008;5.432;2023-02-28T00:14:03;103176.0;;;8.41;53.4
59654;BME280;66556;52.008;5.432;2023-02-28T00:15:39;103178.0;;;8.19;54.3
59654;BME280;66556;52.008;5.432;2023-02-28T00:18:51;103183.99999999999;;;8.18;54.4
59654;BME280;66556;52.008;5.432;2023-02-28T00:20:27;103188.00000000001;;;8.34;53.88
59654;BME280;66556;52.008;5.432;2023-02-28T00:22:03;103189.00000000001;;;8.45;53.78
59654;BME280;66556;52.008;5.432;2023-02-28T00:25:18;103188.00000000001;;;8.33;54.22
59654;BME280;66556;52.008;5.432;2023-02-28T00:26:55;103188.00000000001;;;8.16;54.96
59654;BME280;66556;52.008;5.432;2023-02-28T00:28:32;103188.00000000001;;;8.3;54.77
59654;BME280;66556;52.008;5.432;2023-02-28T00:30:11;103191.00000000001;;;8.2;55.01
59654;BME280;66556;52.008;5.432;2023-02-28T00:33:28;103186.99999999999;;;8.23;55.14
59654;BME280;66556;52.008;5.432;2023-02-28T00:35:06;103184.99999999999;;;8.17;55.35
59654;BME280;66556;52.008;5.432;2023-02-28T00:36:42;103182.0;;;8.22;55.45
59654;BME280;66556;52.008;5.432;2023-02-28T00:39:56;103189.00000000001;;;8.4;54.74
59654;BME280;66556;52.008;5.432;2023-02-28T00:41:32;103186.99999999999;;;8.43;54.86
59654;BME280;66556;52.008;5.432;2023-02-28T00:43:08;103186.99999999999;;;8.48;54.76
59654;BME280;66556;52.008;5.432;2023-02-28T00:46:20;103188.00000000001;;;8.43;54.81
59654;BME280;66556;52.008;5.432;2023-02-28T00:47:57;103183.0;;;8.31;55.17
59654;BME280;66556;52.008;5.432;2023-02-28T00:49:33;103177.0;;;8.36;55.25
59654;BME280;66556;52.008;5.432;2023-02-28T00:51:09;103179.0;;;8.3;55.76
59654;BME280;66556;52.008;5.432;2023-02-28T00:54:23;103179.0;;;8.43;55.26
59654;BME280;66556;52.008;5.432;2023-02-28T00:56:00;103182.0;;;8.31;55.43
59654;BME280;66556;52.008;5.432;2023-02-28T00:57:36;103186.99999999999;;;8.39;55.43
59654;BME280;66556;52.008;5.432;2023-02-28T01:00:49;103183.0;;;8.56;55.14
59654;BME280;66556;52.008;5.432;2023-02-28T01:02:26;103186.99999999999;;;8.36;55.69
59654;BME280;66556;52.008;5.432;2023-02-28T01:04:02;103186.99999999999;;;8.43;55.31
59654;BME280;66556;52.008;5.432;2023-02-28T01:07:14;103190.00000000001;;;8.55;55.72
59654;BME280;66556;52.008;5.432;2023-02-28T01:08:51;103191.00000000001;;;8.65;55.0
59654;BME280;66556;52.008;5.432;2023-02-28T01:10:28;103189.00000000001;;;8.57;55.13
59654;BME280;66556;52.008;5.432;2023-02-28T01:12:04;103189.00000000001;;;8.57;55.61
59654;BME280;66556;52.008;5.432;2023-02-28T01:15:17;103191.00000000001;;;8.63;55.07
59654;BME280;66556;52.008;5.432;2023-02-28T01:16:53;103196.0;;;9.07;54.17
59654;BME280;66556;52.008;5.432;2023-02-28T01:18:29;103196.0;;;8.49;55.19
59654;BME280;66556;52.008;5.432;2023-02-28T01:21:42;103189.00000000001;;;8.42;56.05
59654;BME280;66556;52.008;5.432;2023-02-28T01:23:19;103183.99999999999;;;8.25;56.72
59654;BME280;66556;52.008;5.432;2023-02-28T01:24:56;103190.00000000001;;;8.26;56.51
59654;BME280;66556;52.008;5.432;2023-02-28T01:28:08;103190.00000000001;;;8.56;55.81
59654;BME280;66556;52.008;5.432;2023-02-28T01:29:44;103183.99999999999;;;8.41;55.83
59654;BME280;66556;52.008;5.432;2023-02-28T01:31:21;103184.99999999999;;;8.26;56.38
59654;BME280;66556;52.008;5.432;2023-02-28T01:32:59;103177.0;;;8.35;56.45
59654;BME280;66556;52.008;5.432;2023-02-28T01:36:13;103180.0;;;8.3;56.63
59654;BME280;66556;52.008;5.432;2023-02-28T01:37:51;103173.0;;;8.39;56.2
59654;BME280;66556;52.008;5.432;2023-02-28T01:39:27;103166.00000000001;;;8.1;57.45
59654;BME280;66556;52.008;5.432;2023-02-28T01:42:40;103170.0;;;8.2;57.56
59654;BME280;66556;52.008;5.432;2023-02-28T01:45:23;103169.0;;;8.45;56.72
59654;BME280;66556;52.008;5.432;2023-02-28T01:47:02;103172.0;;;8.35;56.67
59654;BME280;66556;52.008;5.432;2023-02-28T01:48:41;103165.00000000001;;;8.31;57.18
59654;BME280;66556;52.008;5.432;2023-02-28T01:50:21;103168.0;;;8.27;57.39
59654;BME280;66556;52.008;5.432;2023-02-28T01:51:58;103173.0;;;8.49;56.82
59654;BME280;66556;52.008;5.432;2023-02-28T01:55:18;103174.0;;;8.41;56.92
59654;BME280;66556;52.008;5.432;2023-02-28T01:57:01;103172.0;;;8.25;57.78
59654;BME280;66556;52.008;5.432;2023-02-28T01:58:41;103172.0;;;8.33;57.12
59654;BME280;66556;52.008;5.432;2023-02-28T02:00:20;103169.0;;;8.51;56.75
59654;BME280;66556;52.008;5.432;2023-02-28T02:03:36;103167.0;;;8.56;56.73
59654;BME280;66556;52.008;5.432;2023-02-28T02:05:14;103163.00000000001;;;8.55;56.46
59654;BME280;66556;52.008;5.432;2023-02-28T02:06:53;103164.00000000001;;;8.56;56.53
59654;BME280;66556;52.008;5.432;2023-02-28T02:08:31;103156.0;;;8.4;57.19
59654;BME280;66556;52.008;5.432;2023-02-28T02:11:51;103155.0;;;8.56;57.28
59654;BME280;66556;52.008;5.432;2023-02-28T02:13:37;103151.0;;;8.73;56.05
59654;BME280;66556;52.008;5.432;2023-02-28T02:15:32;103152.0;;;8.56;56.98
59654;BME280;66556;52.008;5.432;2023-02-28T02:17:19;103153.0;;;8.61;56.86
59654;BME280;66556;52.008;5.432;2023-02-28T02:19:12;103147.0;;;8.58;56.91
59654;BME280;66556;52.008;5.432;2023-02-28T02:22:51;103150.0;;;8.52;57.22
59654;BME280;66556;52.008;5.432;2023-02-28T02:25:14;103144.0;;;8.69;56.37
59654;BME280;66556;52.008;5.432;2023-02-28T02:27:04;103147.0;;;8.69;56.45
59654;BME280;66556;52.008;5.432;2023-02-28T02:30:01;103148.0;;;8.81;56.45
59654;BME280;66556;52.008;5.432;2023-02-28T02:32:19;103150.0;;;8.92;55.45
59654;BME280;66556;52.008;5.432;2023-02-28T02:35:29;103149.0;;;9.21;54.87
59654;BME280;66556;52.008;5.432;2023-02-28T02:37:15;103153.0;;;9.0;55.42
59654;BME280;66556;52.008;5.432;2023-02-28T02:39:02;103154.0;;;9.01;55.09
59654;BME280;66556;52.008;5.432;2023-02-28T02:40:46;103154.0;;;9.06;55.24
59654;BME280;66556;52.008;5.432;2023-02-28T02:42:35;103158.0;;;9.19;54.72
59654;BME280;66556;52.008;5.432;2023-02-28T02:44:20;103155.0;;;9.36;54.7
59654;BME280;66556;52.008;5.432;2023-02-28T02:47:41;103157.0;;;9.11;54.52
59654;BME280;66556;52.008;5.432;2023-02-28T02:49:21;103158.99999999999;;;9.03;54.95
59654;BME280;66556;52.008;5.432;2023-02-28T02:51:02;103159.99999999999;;;9.13;54.63
59654;BME280;66556;52.008;5.432;2023-02-28T02:52:45;103158.99999999999;;;9.03;55.39
59654;BME280;66556;52.008;5.432;2023-02-28T02:54:35;103161.99999999999;;;8.85;55.6
59654;BME280;66556;52.008;5.432;2023-02-28T02:57:53;103164.00000000001;;;9.05;55.0
59654;BME280;66556;52.008;5.432;2023-02-28T02:59:35;103167.0;;;8.99;55.32
59654;BME280;66556;52.008;5.432;2023-02-28T03:01:16;103167.0;;;9.15;54.83
59654;BME280;66556;52.008;5.432;2023-02-28T03:02:55;103163.00000000001;;;9.26;54.34
59654;BME280;66556;52.008;5.432;2023-02-28T03:06:18;103155.0;;;9.42;53.56
59654;BME280;66556;52.008;5.432;2023-02-28T03:07:54;103163.00000000001;;;9.06;54.96
59654;BME280;66556;52.008;5.432;2023-02-28T03:09:33;103167.0;;;8.99;55.58
59654;BME280;66556;52.008;5.432;2023-02-28T03:12:59;103167.0;;;9.05;55.31
59654;BME280;66556;52.008;5.432;2023-02-28T03:14:50;103170.0;;;9.11;55.01
59654;BME280;66556;52.008;5.432;2023-02-28T03:16:35;103173.0;;;8.93;55.49
59654;BME280;66556;52.008;5.432;2023-02-28T03:18:22;103170.0;;;9.06;55.85
59654;BME280;66556;52.008;5.432;2023-02-28T03:20:07;103170.0;;;9.16;55.21
59654;BME280;66556;52.008;5.432;2023-02-28T03:21:58;103167.0;;;9.01;55.38
59654;BME280;66556;52.008;5.432;2023-02-28T03:25:31;103169.0;;;9.14;55.34
59654;BME280;66556;52.008;5.432;2023-02-28T03:27:16;103170.0;;;9.3;54.93
59654;BME280;66556;52.008;5.432;2023-02-28T03:29:02;103172.0;;;9.39;54.42
59654;BME280;66556;52.008;5.432;2023-02-28T03:30:47;103171.0;;;9.42;54.33
59654;BME280;66556;52.008;5.432;2023-02-28T03:32:28;103172.0;;;9.51;54.11
59654;BME280;66556;52.008;5.432;2023-02-28T03:35:56;103171.0;;;9.56;53.88
59654;BME280;66556;52.008;5.432;2023-02-28T03:37:37;103167.0;;;9.73;53.55
59654;BME280;66556;52.008;5.432;2023-02-28T03:39:20;103167.0;;;9.89;52.63
59654;BME280;66556;52.008;5.432;2023-02-28T03:41:02;103168.0;;;9.74;52.89
59654;BME280;66556;52.008;5.432;2023-02-28T03:42:43;103166.00000000001;;;9.73;52.51
59654;BME280;66556;52.008;5.432;2023-02-28T03:46:09;103172.0;;;9.91;52.16
59654;BME280;66556;52.008;5.432;2023-02-28T03:47:49;103173.0;;;9.64;52.9
59654;BME280;66556;52.008;5.432;2023-02-28T03:49:31;103174.0;;;9.64;52.34
59654;BME280;66556;52.008;5.432;2023-02-28T03:51:15;103181.0;;;9.73;52.11
59654;BME280;66556;52.008;5.432;2023-02-28T03:54:42;103179.0;;;9.81;52.03
59654;BME280;66556;52.008;5.432;2023-02-28T03:56:23;103174.0;;;9.69;51.68
59654;BME280;66556;52.008;5.432;2023-02-28T03:58:11;103178.0;;;9.3;51.92
59654;BME280;66556;52.008;5.432;2023-02-28T03:59:55;103175.0;;;9.51;51.26
59654;BME280;66556;52.008;5.432;2023-02-28T04:01:38;103181.0;;;9.22;51.16
59654;BME280;66556;52.008;5.432;2023-02-28T04:04:52;103179.0;;;9.14;51.45
59654;BME280;66556;52.008;5.432;2023-02-28T04:06:31;103181.0;;;9.27;50.26
59654;BME280;66556;52.008;5.432;2023-02-28T04:08:08;103181.0;;;8.91;50.27
59654;BME280;66556;52.008;5.432;2023-02-28T04:11:22;103180.0;;;9.06;50.33
59654;BME280;66556;52.008;5.432;2023-02-28T04:13:02;103181.0;;;9.19;49.96
59654;BME280;66556;52.008;5.432;2023-02-28T04:14:38;103183.99999999999;;;9.11;50.01
59654;BME280;66556;52.008;5.432;2023-02-28T04:16:15;103184.99999999999;;;9.05;50.21
59654;BME280;66556;52.008;5.432;2023-02-28T04:19:28;103189.00000000001;;;8.9;49.57
59654;BME280;66556;52.008;5.432;2023-02-28T04:21:04;103183.99999999999;;;8.97;49.9
59654;BME280;66556;52.008;5.432;2023-02-28T04:22:41;103182.0;;;9.1;49.4
59654;BME280;66556;52.008;5.432;2023-02-28T04:25:56;103188.00000000001;;;9.35;49.08
59654;BME280;66556;52.008;5.432;2023-02-28T04:27:33;103183.0;;;9.5;48.66
59654;BME280;66556;52.008;5.432;2023-02-28T04:29:11;103184.99999999999;;;9.47;48.87
59654;BME280;66556;52.008;5.432;2023-02-28T04:30:54;103191.00000000001;;;9.56;48.23
59654;BME280;66556;52.008;5.432;2023-02-28T04:34:07;103194.0;;;9.71;48.09
59654;BME280;66556;52.008;5.432;2023-02-28T04:35:43;103199.0;;;9.03;49.2
59654;BME280;66556;52.008;5.432;2023-02-28T04:37:20;103199.0;;;9.38;48.84
59654;BME280;66556;52.008;5.432;2023-02-28T04:40:33;103197.0;;;9.48;48.62
59654;BME280;66556;52.008;5.432;2023-02-28T04:42:09;103193.0;;;8.85;49.35
59654;BME280;66556;52.008;5.432;2023-02-28T04:43:46;103193.0;;;9.24;48.48
59654;BME280;66556;52.008;5.432;2023-02-28T04:45:22;103205.0;;;9.11;49.16
59654;BME280;66556;52.008;5.432;2023-02-28T04:48:36;103204.0;;;9.23;48.45
59654;BME280;66556;52.008;5.432;2023-02-28T04:50:14;103201.0;;;9.23;49.17
59654;BME280;66556;52.008;5.432;2023-02-28T04:51:50;103201.0;;;9.25;48.88
59654;BME280;66556;52.008;5.432;2023-02-28T04:55:05;103199.0;;;9.17;49.48
59654;BME280;66556;52.008;5.432;2023-02-28T04:56:42;103202.0;;;9.33;49.61
59654;BME280;66556;52.008;5.432;2023-02-28T04:58:18;103198.0;;;9.53;48.65
59654;BME280;66556;52.008;5.432;2023-02-28T05:01:32;103198.0;;;9.49;48.74
59654;BME280;66556;52.008;5.432;2023-02-28T05:03:09;103201.0;;;9.26;49.46
59654;BME280;66556;52.008;5.432;2023-02-28T05:04:45;103208.0;;;9.39;48.87
59654;BME280;66556;52.008;5.432;2023-02-28T05:06:22;103208.0;;;9.41;48.97
59654;BME280;66556;52.008;5.432;2023-02-28T05:09:35;103213.00000000001;;;9.48;49.06
59654;BME280;66556;52.008;5.432;2023-02-28T05:11:16;103200.0;;;9.48;48.7
59654;BME280;66556;52.008;5.432;2023-02-28T05:12:52;103199.0;;;9.58;48.37
59654;BME280;66556;52.008;5.432;2023-02-28T05:16:05;103198.0;;;9.6;48.83
59654;BME280;66556;52.008;5.432;2023-02-28T05:17:42;103199.0;;;9.64;48.54
59654;BME280;66556;52.008;5.432;2023-02-28T05:19:19;103197.0;;;9.38;49.85
59654;BME280;66556;52.008;5.432;2023-02-28T05:20:55;103197.0;;;9.19;50.54
59654;BME280;66556;52.008;5.432;2023-02-28T05:24:10;103197.0;;;9.07;51.8
59654;BME280;66556;52.008;5.432;2023-02-28T05:25:47;103198.0;;;9.46;49.92
59654;BME280;66556;52.008;5.432;2023-02-28T05:27:24;103193.0;;;9.51;49.55
59654;BME280;66556;52.008;5.432;2023-02-28T05:30:36;103194.0;;;9.07;51.01
59654;BME280;66556;52.008;5.432;2023-02-28T05:32:12;103189.00000000001;;;8.89;52.16
59654;BME280;66556;52.008;5.432;2023-02-28T05:33:49;103186.99999999999;;;8.75;52.89
59654;BME280;66556;52.008;5.432;2023-02-28T05:37:02;103186.99999999999;;;8.71;53.21
59654;BME280;66556;52.008;5.432;2023-02-28T05:38:39;103186.99999999999;;;8.77;53.49
59654;BME280;66556;52.008;5.432;2023-02-28T05:40:16;103188.00000000001;;;8.61;53.9
59654;BME280;66556;52.008;5.432;2023-02-28T05:41:52;103191.00000000001;;;8.66;53.8
59654;BME280;66556;52.008;5.432;2023-02-28T05:45:05;103177.0;;;8.76;53.63
59654;BME280;66556;52.008;5.432;2023-02-28T05:46:41;103176.0;;;8.69;53.99
59654;BME280;66556;52.008;5.432;2023-02-28T05:48:17;103175.0;;;8.63;54.48
59654;BME280;66556;52.008;5.432;2023-02-28T05:51:30;103176.0;;;8.68;54.36
59654;BME280;66556;52.008;5.432;2023-02-28T05:53:06;103180.0;;;8.59;54.53
59654;BME280;66556;52.008;5.432;2023-02-28T05:54:42;103181.0;;;8.65;54.36
59654;BME280;66556;52.008;5.432;2023-02-28T05:57:54;103189.00000000001;;;8.67;54.37
59654;BME280;66556;52.008;5.432;2023-02-28T05:59:30;103193.0;;;8.68;54.62
59654;BME280;66556;52.008;5.432;2023-02-28T06:01:32;103190.00000000001;;;8.68;54.41
59654;BME280;66556;52.008;5.432;2023-02-28T06:03:09;103194.0;;;8.58;54.63
59654;BME280;66556;52.008;5.432;2023-02-28T06:06:22;103191.00000000001;;;8.56;54.63
59654;BME280;66556;52.008;5.432;2023-02-28T06:07:58;103188.00000000001;;;8.8;53.92
59654;BME280;66556;52.008;5.432;2023-02-28T06:09:35;103183.99999999999;;;8.72;54.44
59654;BME280;66556;52.008;5.432;2023-02-28T06:11:12;103180.0;;;8.72;54.51
59654;BME280;66556;52.008;5.432;2023-02-28T06:14:25;103178.0;;;8.64;54.64
59654;BME280;66556;52.008;5.432;2023-02-28T06:16:01;103175.0;;;8.48;54.56
59654;BME280;66556;52.008;5.432;2023-02-28T06:17:37;103178.0;;;8.55;54.31
59654;BME280;66556;52.008;5.432;2023-02-28T06:20:52;103175.0;;;8.63;54.17
59654;BME280;66556;52.008;5.432;2023-02-28T06:22:28;103183.99999999999;;;8.55;54.2
59654;BME280;66556;52.008;5.432;2023-02-28T06:24:05;103189.00000000001;;;8.75;53.44
59654;BME280;66556;52.008;5.432;2023-02-28T06:27:21;103189.00000000001;;;8.89;53.36
59654;BME280;66556;52.008;5.432;2023-02-28T06:28:57;103183.99999999999;;;8.66;53.46
59654;BME280;66556;52.008;5.432;2023-02-28T06:30:33;103182.0;;;8.82;53.26
59654;BME280;66556;52.008;5.432;2023-02-28T06:32:09;103183.0;;;8.6;53.9
59654;BME280;66556;52.008;5.432;2023-02-28T06:35:22;103194.0;;;9.16;52.17
59654;BME280;66556;52.008;5.432;2023-02-28T06:36:59;103193.0;;;9.38;51.47
59654;BME280;66556;52.008;5.432;2023-02-28T06:38:37;103193.0;;;8.88;53.53
59654;BME280;66556;52.008;5.432;2023-02-28T06:41:51;103196.0;;;9.25;52.57
59654;BME280;66556;52.008;5.432;2023-02-28T06:43:29;103197.0;;;8.59;54.13
59654;BME280;66556;52.008;5.432;2023-02-28T06:45:06;103193.0;;;8.84;53.36
59654;BME280;66556;52.008;5.432;2023-02-28T06:46:44;103196.0;;;8.55;54.47
59654;BME280;66556;52.008;5.432;2023-02-28T06:49:57;103192.0;;;8.73;54.31
59654;BME280;66556;52.008;5.432;2023-02-28T06:51:33;103192.0;;;8.89;53.4
59654;BME280;66556;52.008;5.432;2023-02-28T06:53:09;103195.0;;;8.91;53.36
59654;BME280;66556;52.008;5.432;2023-02-28T06:56:21;103195.0;;;8.97;52.78
59654;BME280;66556;52.008;5.432;2023-02-28T06:57:57;103196.0;;;8.94;53.24
59654;BME280;66556;52.008;5.432;2023-02-28T06:59:35;103201.0;;;8.81;53.96
59654;BME280;66556;52.008;5.432;2023-02-28T07:02:49;103202.0;;;8.8;53.92
59654;BME280;66556;52.008;5.432;2023-02-28T07:04:25;103200.0;;;8.73;54.47
59654;BME280;66556;52.008;5.432;2023-02-28T07:06:02;103200.0;;;8.8;54.34
59654;BME280;66556;52.008;5.432;2023-02-28T07:07:39;103208.99999999999;;;8.72;54.53
59654;BME280;66556;52.008;5.432;2023-02-28T07:10:52;103216.00000000001;;;8.64;55.08
59654;BME280;66556;52.008;5.432;2023-02-28T07:12:29;103218.0;;;8.58;55.46
59654;BME280;66556;52.008;5.432;2023-02-28T07:14:05;103220.0;;;8.71;54.9
59654;BME280;66556;52.008;5.432;2023-02-28T07:17:17;103217.0;;;8.69;54.96
59654;BME280;66556;52.008;5.432;2023-02-28T07:18:53;103217.0;;;8.63;55.33
59654;BME280;66556;52.008;5.432;2023-02-28T07:20:30;103218.0;;;8.78;55.2
59654;BME280;66556;52.008;5.432;2023-02-28T07:23:44;103224.0;;;9.09;54.46
59654;BME280;66556;52.008;5.432;2023-02-28T07:25:20;103223.0;;;9.15;53.86
59654;BME280;66556;52.008;5.432;2023-02-28T07:26:56;103223.0;;;9.09;53.79
59654;BME280;66556;52.008;5.432;2023-02-28T07:28:33;103225.0;;;9.14;53.92
59654;BME280;66556;52.008;5.432;2023-02-28T07:31:46;103226.0;;;9.24;53.23
59654;BME280;66556;52.008;5.432;2023-02-28T07:33:22;103228.0;;;9.42;53.03
59654;BME280;66556;52.008;5.432;2023-02-28T07:34:59;103225.0;;;9.56;52.94
59654;BME280;66556;52.008;5.432;2023-02-28T07:38:11;103224.0;;;9.42;53.03
59654;BME280;66556;52.008;5.432;2023-02-28T07:39:47;103221.0;;;9.39;53.48
59654;BME280;66556;52.008;5.432;2023-02-28T07:41:23;103230.0;;;9.59;52.69
59654;BME280;66556;52.008;5.432;2023-02-28T07:46:16;103240.00000000001;;;9.64;52.74
59654;BME280;66556;52.008;5.432;2023-02-28T07:47:52;103240.00000000001;;;9.76;51.81
59654;BME280;66556;52.008;5.432;2023-02-28T07:49:29;103244.0;;;9.71;51.9
59654;BME280;66556;52.008;5.432;2023-02-28T07:52:41;103245.0;;;9.96;51.08
59654;BME280;66556;52.008;5.432;2023-02-28T07:54:18;103239.00000000001;;;10.08;50.49
59654;BME280;66556;52.008;5.432;2023-02-28T07:55:55;103233.99999999999;;;10.15;50.25
59654;BME280;66556;52.008;5.432;2023-02-28T07:59:07;103236.99999999999;;;9.76;49.25
59654;BME280;66556;52.008;5.432;2023-02-28T08:00:44;103238.00000000001;;;9.96;49.04
59654;BME280;66556;52.008;5.432;2023-02-28T08:02:20;103238.00000000001;;;9.84;49.41
59654;BME280;66556;52.008;5.432;2023-02-28T08:05:32;103242.0;;;9.8;48.78
59654;BME280;66556;52.008;5.432;2023-02-28T08:07:08;103239.00000000001;;;9.72;48.39
59654;BME280;66556;52.008;5.432;2023-02-28T08:08:45;103241.00000000001;;;9.8;47.71
59654;BME280;66556;52.008;5.432;2023-02-28T08:11:57;103251.0;;;9.31;48.01
59654;BME280;66556;52.008;5.432;2023-02-28T08:13:33;103254.0;;;9.51;47.53
59654;BME280;66556;52.008;5.432;2023-02-28T08:15:10;103246.0;;;10.17;47.58
59654;BME280;66556;52.008;5.432;2023-02-28T08:16:46;103243.0;;;10.01;46.61
59654;BME280;66556;52.008;5.432;2023-02-28T08:20:00;103245.0;;;9.92;46.22
59654;BME280;66556;52.008;5.432;2023-02-28T08:21:36;103252.0;;;9.99;45.16
59654;BME280;66556;52.008;5.432;2023-02-28T08:23:12;103250.0;;;10.02;45.55
59654;BME280;66556;52.008;5.432;2023-02-28T08:26:25;103248.0;;;9.92;44.56
59654;BME280;66556;52.008;5.432;2023-02-28T08:28:02;103250.0;;;10.19;43.62
59654;BME280;66556;52.008;5.432;2023-02-28T08:29:38;103259.99999999999;;;9.8;43.96
59654;BME280;66556;52.008;5.432;2023-02-28T08:32:53;103257.0;;;10.38;43.56
59654;BME280;66556;52.008;5.432;2023-02-28T08:34:29;103261.99999999999;;;10.65;43.59
59654;BME280;66556;52.008;5.432;2023-02-28T08:36:06;103254.0;;;10.58;42.93
59654;BME280;66556;52.008;5.432;2023-02-28T08:37:43;103246.0;;;10.51;41.78
59654;BME280;66556;52.008;5.432;2023-02-28T08:40:58;103251.0;;;10.72;42.38
59654;BME280;66556;52.008;5.432;2023-02-28T08:42:35;103251.0;;;10.77;41.09
59654;BME280;66556;52.008;5.432;2023-02-28T08:44:12;103241.00000000001;;;10.95;42.74
59654;BME280;66556;52.008;5.432;2023-02-28T08:47:27;103242.0;;;10.93;39.67
59654;BME280;66556;52.008;5.432;2023-02-28T08:49:04;103251.0;;;11.0;39.21
59654;BME280;66556;52.008;5.432;2023-02-28T08:50:39;103250.0;;;11.07;40.1
59654;BME280;66556;52.008;5.432;2023-02-28T08:52:16;103252.0;;;10.58;37.42
59654;BME280;66556;52.008;5.432;2023-02-28T08:55:30;103247.0;;;10.92;38.78
59654;BME280;66556;52.008;5.432;2023-02-28T08:57:06;103243.0;;;9.98;36.78
59654;BME280;66556;52.008;5.432;2023-02-28T08:58:44;103232.0;;;10.36;35.08
59654;BME280;66556;52.008;5.432;2023-02-28T09:01:57;103242.0;;;10.22;34.71
59654;BME280;66556;52.008;5.432;2023-02-28T09:03:34;103239.00000000001;;;10.02;32.28
59654;BME280;66556;52.008;5.432;2023-02-28T09:05:10;103244.0;;;9.64;32.44
59654;BME280;66556;52.008;5.432;2023-02-28T09:08:23;103242.0;;;10.16;31.65
59654;BME280;66556;52.008;5.432;2023-02-28T09:09:59;103245.0;;;10.18;31.03
59654;BME280;66556;52.008;5.432;2023-02-28T09:11:36;103256.0;;;9.98;30.5
59654;BME280;66556;52.008;5.432;2023-02-28T09:13:12;103256.0;;;9.64;31.24
59654;BME280;66556;52.008;5.432;2023-02-28T09:16:25;103253.0;;;10.23;31.48
59654;BME280;66556;52.008;5.432;2023-02-28T09:18:01;103252.0;;;10.41;31.04
59654;BME280;66556;52.008;5.432;2023-02-28T09:19:37;103259.99999999999;;;10.58;31.15
59654;BME280;66556;52.008;5.432;2023-02-28T09:22:52;103248.0;;;10.55;30.61
59654;BME280;66556;52.008;5.432;2023-02-28T09:24:28;103252.0;;;10.82;31.04
59654;BME280;66556;52.008;5.432;2023-02-28T09:26:05;103252.0;;;10.35;30.54
59654;BME280;66556;52.008;5.432;2023-02-28T09:29:18;103252.0;;;10.14;29.54
59654;BME280;66556;52.008;5.432;2023-02-28T09:30:54;103257.0;;;10.72;30.55
59654;BME280;66556;52.008;5.432;2023-02-28T09:32:31;103251.0;;;10.51;31.26
59654;BME280;66556;52.008;5.432;2023-02-28T09:34:07;103256.0;;;10.61;30.18
59654;BME280;66556;52.008;5.432;2023-02-28T09:37:20;103259.99999999999;;;10.78;30.52
59654;BME280;66556;52.008;5.432;2023-02-28T09:38:56;103261.99999999999;;;10.69;30.37
59654;BME280;66556;52.008;5.432;2023-02-28T09:40:35;103271.0;;;10.91;31.48
59654;BME280;66556;52.008;5.432;2023-02-28T09:44:07;103255.0;;;10.68;29.8
59654;BME280;66556;52.008;5.432;2023-02-28T09:45:52;103256.0;;;10.21;29.91
59654;BME280;66556;52.008;5.432;2023-02-28T09:47:33;103266.00000000001;;;10.07;30.12
59654;BME280;66556;52.008;5.432;2023-02-28T09:49:14;103261.99999999999;;;10.72;32.07
59654;BME280;66556;52.008;5.432;2023-02-28T09:50:55;103258.99999999999;;;10.93;30.74
59654;BME280;66556;52.008;5.432;2023-02-28T09:54:16;103265.00000000001;;;10.88;30.0
59654;BME280;66556;52.008;5.432;2023-02-28T09:55:55;103267.0;;;11.3;27.71
59654;BME280;66556;52.008;5.432;2023-02-28T09:57:36;103250.0;;;11.94;28.55
59654;BME280;66556;52.008;5.432;2023-02-28T09:59:26;103252.0;;;12.08;28.19
59654;BME280;66556;52.008;5.432;2023-02-28T10:01:21;103253.0;;;12.66;28.98
59654;BME280;66556;52.008;5.432;2023-02-28T10:05:04;103251.0;;;12.89;27.26
59654;BME280;66556;52.008;5.432;2023-02-28T10:06:46;103257.0;;;12.53;25.61
59654;BME280;66556;52.008;5.432;2023-02-28T10:08:27;103248.0;;;13.14;26.01
59654;BME280;66556;52.008;5.432;2023-02-28T10:12:01;103249.0;;;12.71;24.98
59654;BME280;66556;52.008;5.432;2023-02-28T10:15:29;103245.0;;;13.43;26.12
59654;BME280;66556;52.008;5.432;2023-02-28T10:17:10;103245.0;;;12.56;25.94
59654;BME280;66556;52.008;5.432;2023-02-28T10:18:52;103247.0;;;12.64;25.76
59654;BME280;66556;52.008;5.432;2023-02-28T10:20:37;103246.0;;;12.61;25.25
59654;BME280;66556;52.008;5.432;2023-02-28T10:22:17;103233.99999999999;;;12.71;25.11
59654;BME280;66556;52.008;5.432;2023-02-28T10:25:57;103233.0;;;13.45;26.1
59654;BME280;66556;52.008;5.432;2023-02-28T10:27:35;103234.99999999999;;;13.0;25.17
59654;BME280;66556;52.008;5.432;2023-02-28T10:29:11;103233.99999999999;;;13.56;25.96
59654;BME280;66556;52.008;5.432;2023-02-28T10:30:50;103233.99999999999;;;14.18;25.48
59654;BME280;66556;52.008;5.432;2023-02-28T10:34:07;103236.99999999999;;;13.63;23.91
59654;BME280;66556;52.008;5.432;2023-02-28T10:35:47;103228.0;;;13.98;25.12
59654;BME280;66556;52.008;5.432;2023-02-28T10:37:24;103225.0;;;14.61;24.3
59654;BME280;66556;52.008;5.432;2023-02-28T10:39:34;103230.0;;;14.48;23.02
59654;BME280;66556;52.008;5.432;2023-02-28T10:41:13;103232.0;;;14.92;23.02
59654;BME280;66556;52.008;5.432;2023-02-28T10:44:34;103239.00000000001;;;14.98;24.98
59654;BME280;66556;52.008;5.432;2023-02-28T10:46:14;103233.0;;;14.78;23.97
59654;BME280;66556;52.008;5.432;2023-02-28T10:47:53;103240.00000000001;;;14.62;23.56
59654;BME280;66556;52.008;5.432;2023-02-28T10:49:31;103233.99999999999;;;14.46;24.34
59654;BME280;66556;52.008;5.432;2023-02-28T10:52:46;103242.0;;;14.56;23.5